createdAt,value
2022-07-31T00:02:34.538Z,2.40
2022-07-31T00:05:23.211Z,2.37
2022-07-31T00:08:11.693Z,2.20
2022-07-31T00:11:00.335Z,2.30
2022-07-31T00:13:56.435Z,2.30
2022-07-31T00:16:48.065Z,2.40
2022-07-31T00:19:37.266Z,2.07
2022-07-31T00:22:25.743Z,2.40
2022-07-31T00:25:15.374Z,2.30
2022-07-31T00:28:03.920Z,2.33
2022-07-31T00:30:52.506Z,2.37
2022-07-31T00:33:42.626Z,2.50
2022-07-31T00:36:31.146Z,2.13
2022-07-31T00:39:21.288Z,2.27
2022-07-31T00:42:18.296Z,2.13
2022-07-31T00:45:08.503Z,2.07
2022-07-31T00:47:57.742Z,2.17
2022-07-31T00:50:47.596Z,2.27
2022-07-31T00:53:36.218Z,2.20
2022-07-31T00:56:25.150Z,2.10
2022-07-31T00:59:13.947Z,2.10
2022-07-31T01:02:02.403Z,2.30
2022-07-31T01:04:51.034Z,2.10
2022-07-31T01:07:40.840Z,2.00
2022-07-31T01:10:44.583Z,2.10
2022-07-31T01:13:36.599Z,2.30
2022-07-31T01:16:26.534Z,2.10
2022-07-31T01:19:24.240Z,2.40
2022-07-31T01:22:53.746Z,2.40
2022-07-31T01:25:54.147Z,2.20
2022-07-31T01:29:02.091Z,1.90
2022-07-31T01:31:55.045Z,2.00
2022-07-31T01:34:47.121Z,2.33
2022-07-31T01:37:40.615Z,2.30
2022-07-31T01:40:33.584Z,2.20
2022-07-31T01:43:25.786Z,2.40
2022-07-31T01:46:16.984Z,2.43
2022-07-31T01:49:05.621Z,2.47
2022-07-31T01:51:54.962Z,2.27
2022-07-31T01:54:54.310Z,2.40
2022-07-31T01:57:43.011Z,2.40
2022-07-31T02:00:34.465Z,2.30
2022-07-31T02:03:44.297Z,2.23
2022-07-31T02:06:34.631Z,2.10
2022-07-31T02:09:23.508Z,2.40
2022-07-31T02:12:12.321Z,2.30
2022-07-31T02:15:01.038Z,2.40
2022-07-31T02:17:49.840Z,2.60
2022-07-31T02:20:45.485Z,2.40
2022-07-31T02:23:34.332Z,2.57
2022-07-31T02:26:22.851Z,2.57
2022-07-31T02:29:20.077Z,2.40
2022-07-31T02:32:09.633Z,2.40
2022-07-31T02:34:58.267Z,2.40
2022-07-31T02:37:49.670Z,2.43
2022-07-31T02:40:38.472Z,2.50
2022-07-31T02:43:29.712Z,2.07
2022-07-31T02:46:19.825Z,2.37
2022-07-31T02:49:08.473Z,2.30
2022-07-31T02:51:57.369Z,2.10
2022-07-31T02:54:48.544Z,2.30
2022-07-31T02:57:37.187Z,2.30
2022-07-31T03:00:30.824Z,2.43
2022-07-31T03:03:19.955Z,2.40
2022-07-31T03:06:08.595Z,2.47
2022-07-31T03:08:59.690Z,2.30
2022-07-31T03:11:49.657Z,2.30
2022-07-31T03:14:38.253Z,2.33
2022-07-31T03:17:38.034Z,2.47
2022-07-31T03:20:27.555Z,2.40
2022-07-31T03:23:16.041Z,2.27
2022-07-31T03:26:16.047Z,2.63
2022-07-31T03:29:06.037Z,2.70
2022-07-31T03:32:14.767Z,2.30
2022-07-31T03:35:03.460Z,2.23
2022-07-31T03:37:52.118Z,2.60
2022-07-31T03:40:40.647Z,2.67
2022-07-31T03:43:30.121Z,2.30
2022-07-31T03:46:34.454Z,2.30
2022-07-31T03:49:23.114Z,2.40
2022-07-31T03:52:12.802Z,2.60
2022-07-31T03:55:01.590Z,2.30
2022-07-31T03:57:50.246Z,2.73
2022-07-31T04:00:38.938Z,2.30
2022-07-31T04:03:31.869Z,2.33
2022-07-31T04:06:40.737Z,2.53
2022-07-31T04:09:29.692Z,2.37
2022-07-31T04:12:19.035Z,2.50
2022-07-31T04:15:08.685Z,2.50
2022-07-31T04:17:58.344Z,2.37
2022-07-31T04:20:54.569Z,2.40
2022-07-31T04:23:49.564Z,2.30
2022-07-31T04:26:57.829Z,2.50
2022-07-31T04:29:53.549Z,2.70
2022-07-31T04:32:42.229Z,2.77
2022-07-31T04:35:36.222Z,2.33
2022-07-31T04:38:26.105Z,2.53
2022-07-31T04:41:14.669Z,2.40
2022-07-31T04:44:03.158Z,2.40
2022-07-31T04:47:06.403Z,2.77
2022-07-31T04:49:57.448Z,2.47
2022-07-31T04:52:48.661Z,2.50
2022-07-31T04:55:38.609Z,2.50
2022-07-31T04:58:27.714Z,2.40
2022-07-31T05:01:16.394Z,2.07
2022-07-31T05:04:05.536Z,2.60
2022-07-31T05:06:54.725Z,2.50
2022-07-31T05:09:44.009Z,2.70
2022-07-31T05:12:33.920Z,2.60
2022-07-31T05:15:22.397Z,2.17
2022-07-31T05:18:12.836Z,2.40
2022-07-31T05:21:32.847Z,2.43
2022-07-31T05:24:44.339Z,2.40
2022-07-31T05:27:38.935Z,2.27
2022-07-31T05:30:30.489Z,2.30
2022-07-31T05:33:19.563Z,2.40
2022-07-31T05:36:08.795Z,2.60
2022-07-31T05:38:57.332Z,2.23
2022-07-31T05:41:54.623Z,2.60
2022-07-31T05:44:59.087Z,2.60
2022-07-31T05:47:47.728Z,2.07
2022-07-31T05:50:36.502Z,2.23
2022-07-31T05:53:25.343Z,2.70
2022-07-31T05:56:52.447Z,2.50
2022-07-31T05:59:47.094Z,2.47
2022-07-31T06:02:37.069Z,2.30
2022-07-31T06:05:38.717Z,2.57
2022-07-31T06:08:27.251Z,2.60
2022-07-31T06:11:18.246Z,2.17
2022-07-31T06:14:06.787Z,2.30
2022-07-31T06:17:15.303Z,2.40
2022-07-31T06:20:05.997Z,2.30
2022-07-31T06:22:55.155Z,2.40
2022-07-31T06:25:45.864Z,2.23
2022-07-31T06:28:47.579Z,2.43
2022-07-31T06:31:38.819Z,2.50
2022-07-31T06:34:27.366Z,2.70
2022-07-31T06:37:17.331Z,2.30
2022-07-31T06:40:07.631Z,2.90
2022-07-31T06:43:07.350Z,2.70
2022-07-31T06:46:14.869Z,2.30
2022-07-31T06:49:29.652Z,2.53
2022-07-31T06:52:19.603Z,2.20
2022-07-31T06:55:09.275Z,2.27
2022-07-31T06:57:58.009Z,2.13
2022-07-31T07:00:46.540Z,2.30
2022-07-31T07:03:35.083Z,2.20
2022-07-31T07:06:23.943Z,2.43
2022-07-31T07:09:13.783Z,2.30
2022-07-31T07:12:02.464Z,2.73
2022-07-31T07:14:51.130Z,2.70
2022-07-31T07:17:39.693Z,3.00
2022-07-31T07:20:35.193Z,3.00
2022-07-31T07:23:23.993Z,3.30
2022-07-31T07:26:32.708Z,3.20
2022-07-31T07:29:24.399Z,3.07
2022-07-31T07:32:14.721Z,3.43
2022-07-31T07:35:04.624Z,2.90
2022-07-31T07:38:09.321Z,2.97
2022-07-31T07:40:58.626Z,2.60
2022-07-31T07:43:48.706Z,3.00
2022-07-31T07:46:41.922Z,3.23
2022-07-31T07:49:35.990Z,2.73
2022-07-31T07:53:01.268Z,2.80
2022-07-31T07:56:12.383Z,2.50
2022-07-31T07:59:28.244Z,2.60
2022-07-31T08:03:47.344Z,2.47
2022-07-31T08:06:01.595Z,2.90
2022-07-31T08:08:50.179Z,2.43
2022-07-31T08:11:57.518Z,2.40
2022-07-31T08:15:07.926Z,3.10
2022-07-31T08:18:14.685Z,2.87
2022-07-31T08:21:03.206Z,2.43
2022-07-31T08:23:52.694Z,2.63
2022-07-31T08:26:59.673Z,2.50
2022-07-31T08:29:49.847Z,3.00
2022-07-31T08:32:42.096Z,3.07
2022-07-31T08:35:38.130Z,2.40
2022-07-31T08:38:28.686Z,2.60
2022-07-31T08:41:55.189Z,2.30
2022-07-31T08:44:45.315Z,2.17
2022-07-31T08:47:37.158Z,2.50
2022-07-31T08:50:32.893Z,2.30
2022-07-31T08:53:23.591Z,2.43
2022-07-31T08:56:18.899Z,2.37
2022-07-31T08:59:08.140Z,2.17
2022-07-31T09:01:58.453Z,2.50
2022-07-31T09:04:52.329Z,2.30
2022-07-31T09:07:43.925Z,2.27
2022-07-31T09:10:32.543Z,2.30
2022-07-31T09:13:21.078Z,2.30
2022-07-31T09:16:12.550Z,2.00
2022-07-31T09:19:03.844Z,2.00
2022-07-31T09:22:22.275Z,2.23
2022-07-31T09:25:16.369Z,1.97
2022-07-31T09:28:06.445Z,2.20
2022-07-31T09:30:57.151Z,2.30
2022-07-31T09:33:58.145Z,2.20
2022-07-31T09:36:55.618Z,2.50
2022-07-31T09:40:21.291Z,2.10
2022-07-31T09:43:51.580Z,2.10
2022-07-31T09:46:40.966Z,2.10
2022-07-31T09:49:33.722Z,2.20
2022-07-31T09:52:22.405Z,2.03
2022-07-31T09:55:16.313Z,2.37
2022-07-31T09:58:08.381Z,2.30
2022-07-31T10:01:02.574Z,2.27
2022-07-31T10:03:52.665Z,2.07
2022-07-31T10:06:41.258Z,2.13
2022-07-31T10:09:30.215Z,2.17
2022-07-31T10:12:30.345Z,2.80
2022-07-31T10:15:21.164Z,2.33
2022-07-31T10:18:35.801Z,2.07
2022-07-31T10:22:02.420Z,2.13
2022-07-31T10:24:54.235Z,1.90
2022-07-31T10:27:42.929Z,2.40
2022-07-31T10:30:35.836Z,2.30
2022-07-31T10:33:45.358Z,2.20
2022-07-31T10:36:52.576Z,1.93
2022-07-31T10:39:57.705Z,2.00
2022-07-31T10:43:01.733Z,2.20
2022-07-31T10:45:55.026Z,2.30
2022-07-31T10:49:08.562Z,2.07
2022-07-31T10:52:16.318Z,2.00
2022-07-31T10:55:27.058Z,2.13
2022-07-31T10:58:35.854Z,1.97
2022-07-31T11:01:53.045Z,2.27
2022-07-31T11:05:13.219Z,1.90
2022-07-31T11:08:24.855Z,2.27
2022-07-31T11:11:25.934Z,1.97
2022-07-31T11:14:34.462Z,1.80
2022-07-31T11:18:20.188Z,2.03
2022-07-31T11:21:22.723Z,2.17
2022-07-31T11:24:16.521Z,2.00
2022-07-31T11:27:05.670Z,2.00
2022-07-31T11:30:01.945Z,2.10
2022-07-31T11:32:54.210Z,2.10
2022-07-31T11:35:42.823Z,2.00
2022-07-31T11:38:31.597Z,2.17
2022-07-31T11:41:22.845Z,2.00
2022-07-31T11:44:11.885Z,2.10
2022-07-31T11:47:00.462Z,1.97
2022-07-31T11:49:50.424Z,1.97
2022-07-31T11:52:43.345Z,2.00
2022-07-31T11:55:32.118Z,2.00
2022-07-31T11:58:22.732Z,2.00
2022-07-31T12:01:11.278Z,2.00
2022-07-31T12:04:08.343Z,2.10
2022-07-31T12:06:59.353Z,1.97
2022-07-31T12:10:02.709Z,2.00
2022-07-31T12:12:51.809Z,2.20
2022-07-31T12:15:40.246Z,1.90
2022-07-31T12:18:30.707Z,1.90
2022-07-31T12:21:19.769Z,2.10
2022-07-31T12:24:13.423Z,2.07
2022-07-31T12:27:02.915Z,2.13
2022-07-31T12:29:51.553Z,2.10
2022-07-31T12:32:40.059Z,2.00
2022-07-31T12:35:55.694Z,2.10
2022-07-31T12:38:48.155Z,2.13
2022-07-31T12:41:44.070Z,2.03
2022-07-31T12:44:32.607Z,2.00
2022-07-31T12:47:22.358Z,1.87
2022-07-31T12:50:14.908Z,1.97
2022-07-31T12:53:04.677Z,1.90
2022-07-31T12:55:53.200Z,2.40
2022-07-31T12:58:43.035Z,1.80
2022-07-31T13:01:31.669Z,1.90
2022-07-31T13:04:20.151Z,1.90
2022-07-31T13:07:09.554Z,1.90
2022-07-31T13:10:17.557Z,2.03
2022-07-31T13:13:06.581Z,2.20
2022-07-31T13:15:56.485Z,1.88
2022-07-31T13:18:45.276Z,1.73
2022-07-31T13:21:42.491Z,1.77
2022-07-31T13:24:38.199Z,1.80
2022-07-31T13:27:26.718Z,1.88
2022-07-31T13:30:15.366Z,1.90
2022-07-31T13:33:05.380Z,1.98
2022-07-31T13:35:54.069Z,1.88
2022-07-31T13:38:42.565Z,1.70
2022-07-31T13:41:34.150Z,1.52
2022-07-31T13:44:22.636Z,1.85
2022-07-31T13:47:11.219Z,1.55
2022-07-31T13:50:01.118Z,2.08
2022-07-31T13:52:49.628Z,1.80
2022-07-31T13:55:38.359Z,1.70
2022-07-31T13:58:28.142Z,1.70
2022-07-31T14:01:16.745Z,1.70
2022-07-31T14:04:06.067Z,2.00
2022-07-31T14:06:55.946Z,1.90
2022-07-31T14:09:55.023Z,1.80
2022-07-31T14:12:43.872Z,1.60
2022-07-31T14:15:32.419Z,2.00
2022-07-31T14:18:22.297Z,1.63
2022-07-31T14:21:10.840Z,1.90
2022-07-31T14:24:00.706Z,1.60
2022-07-31T14:26:49.227Z,1.73
2022-07-31T14:29:37.850Z,1.92
2022-07-31T14:32:26.384Z,1.83
2022-07-31T14:35:14.856Z,1.80
2022-07-31T14:38:04.417Z,1.93
2022-07-31T14:40:54.422Z,1.90
2022-07-31T14:43:42.912Z,1.90
2022-07-31T14:46:31.402Z,1.90
2022-07-31T14:49:20.098Z,2.00
2022-07-31T14:52:08.776Z,1.98
2022-07-31T14:54:58.709Z,1.77
2022-07-31T14:57:48.573Z,1.90
2022-07-31T15:00:37.124Z,2.00
2022-07-31T15:03:25.693Z,1.65
2022-07-31T15:06:40.036Z,1.70
2022-07-31T15:09:25.596Z,1.60
2022-07-31T15:12:16.759Z,1.75
2022-07-31T15:15:08.260Z,1.60
2022-07-31T15:17:56.826Z,1.80
2022-07-31T15:20:45.350Z,2.00
2022-07-31T15:23:35.816Z,1.92
2022-07-31T15:26:24.556Z,1.80
2022-07-31T15:29:13.027Z,1.77
2022-07-31T15:32:02.828Z,1.60
2022-07-31T15:34:51.434Z,2.00
2022-07-31T15:37:40.754Z,1.60
2022-07-31T15:40:29.229Z,1.50
2022-07-31T15:43:17.760Z,1.60
2022-07-31T15:46:07.715Z,1.60
2022-07-31T15:48:57.583Z,1.75
2022-07-31T15:51:46.118Z,1.80
2022-07-31T15:54:34.594Z,1.77
2022-07-31T15:57:23.122Z,1.65
2022-07-31T16:00:14.069Z,1.45
2022-07-31T16:03:04.566Z,1.50
2022-07-31T16:05:56.273Z,1.45
2022-07-31T16:08:44.994Z,1.60
2022-07-31T16:12:04.230Z,1.70
2022-07-31T16:14:41.985Z,1.60
2022-07-31T16:17:37.827Z,1.42
2022-07-31T16:20:27.149Z,1.73
2022-07-31T16:23:17.183Z,1.40
2022-07-31T16:26:05.772Z,1.70
2022-07-31T16:28:54.444Z,1.50
2022-07-31T16:31:42.967Z,1.50
2022-07-31T16:34:31.496Z,1.58
2022-07-31T16:37:20.001Z,1.40
2022-07-31T16:40:32.180Z,1.53
2022-07-31T16:43:49.334Z,1.70
2022-07-31T16:46:29.173Z,1.80
2022-07-31T16:49:35.212Z,1.40
2022-07-31T16:52:26.180Z,1.50
2022-07-31T16:55:14.716Z,1.43
2022-07-31T16:58:04.605Z,2.07
2022-07-31T17:00:53.202Z,1.60
2022-07-31T17:04:01.196Z,1.70
2022-07-31T17:06:50.459Z,1.70
2022-07-31T17:09:38.954Z,1.50
2022-07-31T17:12:27.572Z,1.40
2022-07-31T17:15:17.485Z,1.40
2022-07-31T17:18:06.139Z,1.50
2022-07-31T17:20:55.997Z,1.50
2022-07-31T17:23:50.984Z,1.70
2022-07-31T17:26:39.772Z,1.60
2022-07-31T17:29:28.205Z,1.60
2022-07-31T17:32:18.144Z,1.60
2022-07-31T17:35:08.226Z,1.90
2022-07-31T17:38:02.158Z,1.40
2022-07-31T17:40:51.161Z,1.47
2022-07-31T17:43:50.131Z,1.60
2022-07-31T17:46:48.036Z,1.50
2022-07-31T17:49:38.767Z,1.43
2022-07-31T17:52:27.470Z,1.57
2022-07-31T17:55:15.944Z,1.60
2022-07-31T17:58:04.403Z,1.40
2022-07-31T18:00:53.898Z,1.80
2022-07-31T18:03:42.414Z,1.40
2022-07-31T18:06:32.293Z,1.60
2022-07-31T18:09:23.197Z,1.60
2022-07-31T18:12:15.412Z,1.70
2022-07-31T18:15:05.122Z,1.60
2022-07-31T18:17:54.322Z,1.53
2022-07-31T18:20:45.134Z,1.40
2022-07-31T18:23:34.950Z,1.97
2022-07-31T18:26:23.523Z,1.70
2022-07-31T18:29:12.059Z,1.80
2022-07-31T18:32:00.532Z,1.80
2022-07-31T18:34:49.071Z,1.80
2022-07-31T18:37:37.680Z,1.60
2022-07-31T18:40:27.569Z,1.70
2022-07-31T18:43:16.108Z,1.70
2022-07-31T18:46:04.858Z,1.60
2022-07-31T18:48:55.909Z,1.60
2022-07-31T18:51:45.368Z,1.60
2022-07-31T18:54:34.113Z,1.80
2022-07-31T18:57:24.184Z,1.60
2022-07-31T19:00:13.543Z,1.50
2022-07-31T19:03:02.035Z,1.70
2022-07-31T19:05:52.721Z,1.60
2022-07-31T19:08:41.225Z,1.50
2022-07-31T19:11:29.771Z,1.60
2022-07-31T19:14:21.721Z,1.30
2022-07-31T19:17:10.255Z,1.60
2022-07-31T19:20:01.421Z,1.53
2022-07-31T19:22:50.919Z,1.70
2022-07-31T19:26:02.806Z,1.57
2022-07-31T19:28:48.095Z,1.50
2022-07-31T19:31:38.500Z,1.70
2022-07-31T19:34:27.034Z,1.77
2022-07-31T19:37:17.529Z,1.50
2022-07-31T19:40:09.060Z,1.70
2022-07-31T19:42:59.572Z,1.70
2022-07-31T19:45:58.816Z,1.50
2022-07-31T19:48:58.199Z,1.60
2022-07-31T19:51:46.863Z,1.60
2022-07-31T19:54:35.358Z,1.80
2022-07-31T19:57:24.063Z,1.57
2022-07-31T20:00:13.856Z,1.50
2022-07-31T20:03:02.401Z,1.67
2022-07-31T20:05:52.404Z,1.70
2022-07-31T20:08:40.939Z,1.50
2022-07-31T20:11:29.562Z,1.50
2022-07-31T20:14:17.987Z,1.87
2022-07-31T20:17:06.595Z,1.93
2022-07-31T20:20:14.901Z,1.60
2022-07-31T20:23:05.171Z,1.80
2022-07-31T20:25:53.837Z,1.60
2022-07-31T20:28:43.972Z,1.87
2022-07-31T20:31:33.085Z,1.60
2022-07-31T20:34:22.439Z,1.80
2022-07-31T20:37:10.944Z,1.73
2022-07-31T20:40:00.858Z,1.73
2022-07-31T20:42:49.813Z,1.90
2022-07-31T20:45:41.553Z,1.83
2022-07-31T20:48:32.454Z,1.60
2022-07-31T20:51:23.231Z,2.00
2022-07-31T20:54:11.760Z,2.00
2022-07-31T20:57:01.593Z,1.90
2022-07-31T20:59:50.182Z,2.00
2022-07-31T21:02:38.697Z,1.73
2022-07-31T21:05:29.575Z,1.90
2022-07-31T21:08:18.267Z,1.90
2022-07-31T21:11:06.785Z,1.77
2022-07-31T21:13:56.686Z,1.80
2022-07-31T21:16:45.209Z,1.90
2022-07-31T21:19:33.656Z,1.80
2022-07-31T21:22:22.218Z,1.80
2022-07-31T21:25:11.832Z,1.90
2022-07-31T21:28:00.709Z,1.87
2022-07-31T21:30:51.053Z,1.80
2022-07-31T21:33:40.396Z,1.87
2022-07-31T21:36:28.982Z,1.80
2022-07-31T21:39:19.585Z,1.80
2022-07-31T21:42:09.619Z,1.90
2022-07-31T21:44:58.922Z,1.73
2022-07-31T21:47:52.749Z,1.90
2022-07-31T21:50:43.362Z,1.70
2022-07-31T21:53:31.788Z,1.80
2022-07-31T21:56:20.256Z,2.00
2022-07-31T21:59:08.724Z,1.90
2022-07-31T22:02:08.290Z,1.87
2022-07-31T22:05:15.629Z,1.80
2022-07-31T22:08:04.335Z,1.80
2022-07-31T22:10:53.187Z,1.90
2022-07-31T22:13:41.702Z,2.07
2022-07-31T22:16:30.698Z,2.00
2022-07-31T22:19:19.809Z,1.50
2022-07-31T22:22:11.115Z,1.97
2022-07-31T22:25:00.207Z,1.80
2022-07-31T22:27:56.375Z,2.00
2022-07-31T22:30:45.676Z,1.67
2022-07-31T22:33:34.442Z,1.90
2022-07-31T22:36:22.989Z,1.90
2022-07-31T22:39:12.908Z,1.67
2022-07-31T22:42:01.998Z,1.90
2022-07-31T22:44:50.942Z,1.73
2022-07-31T22:47:39.815Z,1.80
2022-07-31T22:50:28.727Z,1.90
2022-07-31T22:53:17.715Z,1.97
2022-07-31T22:56:07.616Z,2.00
2022-07-31T22:58:56.947Z,1.90
2022-07-31T23:01:45.443Z,1.90
2022-07-31T23:04:34.054Z,2.00
2022-07-31T23:07:22.556Z,1.97
2022-07-31T23:10:12.695Z,1.80
2022-07-31T23:13:02.611Z,2.13
2022-07-31T23:15:51.171Z,2.00
2022-07-31T23:18:39.661Z,2.20
2022-07-31T23:21:28.270Z,1.93
2022-07-31T23:24:16.953Z,2.07
2022-07-31T23:27:08.315Z,1.80
2022-07-31T23:29:58.706Z,1.90
2022-07-31T23:32:47.211Z,2.00
2022-07-31T23:35:35.648Z,2.13
2022-07-31T23:38:24.109Z,2.10
2022-07-31T23:41:12.720Z,2.03
2022-07-31T23:44:00.231Z,1.80
2022-07-31T23:46:50.028Z,2.00
2022-07-31T23:49:38.577Z,1.87
2022-07-31T23:52:27.071Z,2.03
2022-07-31T23:55:15.489Z,2.07
2022-07-31T23:58:04.085Z,1.90
